Portada
METAR-TAF:

METAR-TAF

Aeroports :

Aeroport Internacional de Seattle-Tacoma

Seattle-Tacoma, Washington, Estats Units d'Amèrica

latitud: 47-26-41N, longitud: 122-18-49W, altitud: 130 m

Observació

L'informe es va fer fa 44 minuts, a les 02:53 UTC
Vent 11 kt del Nord
Temperatura 7°C
Humitat 70%
Pressió 1019 hPa
Visibilitat: 16.1 km
Cel clar

METAR: KSEA 210253Z 36011KT 10SM CLR 07/02 A3008 RMK AO2 SLP193 T00670017 56008

Hora: 19:37 (03:37 UTC)

Pronòstic

L'informe es va fer fa 45 minuts, a les 02:52 UTC
Pronòstic vàlid del 21 a les 03 UTC al 22 a les 06 UTC
Vent 10 kt del Nord
Visibilitat: 10 km
Cel clar
A partir de les 21 a les 0500 UTC
Vent 5 kt del Est/Nord-Est
Visibilitat: 10 km
Cel clar
A partir de les 21 a les 1600 UTC
Vent 3 kt amb direcció variable
Visibilitat: 10 km
Cel clar

TAF: KSEA 210252Z 2103/2206 01010KT P6SM SKC FM210500 06005KT P6SM SKC FM211600 VRB03KT P6SM SKC

Observacions i pronòstics meteorològics de més de 4000 aeroports (METAR i TAF).

Les estacions disponibles són els punts grocs i vermells al mapa.

Posi el ratolí al punt desitjat per veure el nom de l'estació.

Feu clic per veure les observacions i els pronòstics meteorològics.

Per canviar el mapa: feu clic els botons verds amb una creu de color negre per apropar; al botó verd amb un guió per allunyar la imatge; o en les fletxes verdes per a mapes adjacents.


METAR-TAF: